createdAt,value
2022-09-06T00:00:00.351Z,13.3
2022-09-06T00:05:00.202Z,11.2
2022-09-06T00:10:00.333Z,7.6
2022-09-06T00:15:00.313Z,11.2
2022-09-06T00:20:00.407Z,11.2
2022-09-06T00:25:00.187Z,8.6
2022-09-06T00:30:00.345Z,9.4
2022-09-06T00:35:00.187Z,9.4
2022-09-06T00:40:00.770Z,5.4
2022-09-06T00:45:00.193Z,7.2
2022-09-06T00:50:00.341Z,5.4
2022-09-06T00:55:00.178Z,6.8
2022-09-06T01:00:00.354Z,4.0
2022-09-06T01:05:00.193Z,7.6
2022-09-06T01:10:00.335Z,4.0
2022-09-06T01:15:00.172Z,6.1
2022-09-06T01:20:00.342Z,3.6
2022-09-06T01:25:00.167Z,4.0
2022-09-06T01:30:00.325Z,3.6
2022-09-06T01:35:00.205Z,5.4
2022-09-06T01:40:00.610Z,7.2
2022-09-06T01:45:00.175Z,4.0
2022-09-06T01:50:00.343Z,7.9
2022-09-06T01:55:00.323Z,4.3
2022-09-06T02:00:00.340Z,7.2
2022-09-06T02:05:00.186Z,4.3
2022-09-06T02:10:00.345Z,7.6
2022-09-06T02:15:00.199Z,8.3
2022-09-06T02:20:00.317Z,6.8
2022-09-06T02:25:00.208Z,13.0
2022-09-06T02:30:00.356Z,12.2
2022-09-06T02:35:00.165Z,10.1
2022-09-06T02:40:00.652Z,7.9
2022-09-06T02:45:00.194Z,8.6
2022-09-06T02:50:00.307Z,14.4
2022-09-06T02:55:00.171Z,6.8
2022-09-06T03:00:00.348Z,10.4
2022-09-06T03:05:00.205Z,8.3
2022-09-06T03:10:00.351Z,5.8
2022-09-06T03:15:00.196Z,13.0
2022-09-06T03:20:00.322Z,5.4
2022-09-06T03:25:00.228Z,9.4
2022-09-06T03:30:00.337Z,5.0
2022-09-06T03:35:00.194Z,6.5
2022-09-06T03:40:00.683Z,8.6
2022-09-06T03:45:00.181Z,6.8
2022-09-06T03:50:00.331Z,7.6
2022-09-06T03:55:00.192Z,6.5
2022-09-06T04:00:00.345Z,3.6
2022-09-06T04:05:00.183Z,2.2
2022-09-06T04:10:00.342Z,5.0
2022-09-06T04:15:00.187Z,4.0
2022-09-06T04:20:00.348Z,6.8
2022-09-06T04:25:00.186Z,5.0
2022-09-06T04:30:00.355Z,4.0
2022-09-06T04:35:00.198Z,3.6
2022-09-06T04:40:00.781Z,6.5
2022-09-06T04:45:00.290Z,6.5
2022-09-06T04:50:00.353Z,3.6
2022-09-06T04:55:00.185Z,6.1
2022-09-06T05:00:00.408Z,9.7
2022-09-06T05:05:00.186Z,6.5
2022-09-06T05:10:00.330Z,6.1
2022-09-06T05:15:00.215Z,6.5
2022-09-06T05:20:00.336Z,10.8
2022-09-06T05:25:00.182Z,9.7
2022-09-06T05:30:00.369Z,8.3
2022-09-06T05:35:00.266Z,17.3
2022-09-06T05:40:00.687Z,10.4
2022-09-06T05:45:00.205Z,15.8
2022-09-06T05:50:00.316Z,15.1
2022-09-06T05:55:00.195Z,12.2
2022-09-06T06:00:00.342Z,3.2
2022-09-06T06:05:00.295Z,4.3
2022-09-06T06:10:00.343Z,10.4
2022-09-06T06:15:00.227Z,7.6
2022-09-06T06:20:00.381Z,11.2
2022-09-06T06:25:00.327Z,13.0
2022-09-06T06:30:00.300Z,14.4
2022-09-06T06:35:00.178Z,13.3
2022-09-06T06:40:00.652Z,21.6
2022-09-06T06:45:00.176Z,11.2
2022-09-06T06:50:00.344Z,7.9
2022-09-06T06:55:00.192Z,12.6
2022-09-06T07:00:00.375Z,24.5
2022-09-06T07:05:00.983Z,16.9
2022-09-06T07:10:35.501Z,18.4
2022-09-06T07:15:00.207Z,13.7
2022-09-06T07:25:00.182Z,7.9
2022-09-06T07:30:00.443Z,15.1
2022-09-06T07:35:00.205Z,9.7
2022-09-06T07:40:00.686Z,7.6
2022-09-06T07:45:00.181Z,9.4
2022-09-06T07:50:49.216Z,15.8
2022-09-06T07:55:00.197Z,15.8
2022-09-06T08:00:00.528Z,13.3
2022-09-06T08:05:00.530Z,14.8
2022-09-06T08:10:01.340Z,10.8
2022-09-06T08:15:00.191Z,14.8
2022-09-06T08:20:00.330Z,23.4
2022-09-06T08:25:00.189Z,10.8
2022-09-06T08:30:00.355Z,23.0
2022-09-06T08:35:00.246Z,15.8
2022-09-06T08:40:00.597Z,7.6
2022-09-06T08:45:00.352Z,16.2
2022-09-06T08:50:00.337Z,10.8
2022-09-06T08:55:00.212Z,15.5
2022-09-06T09:00:00.336Z,16.9
2022-09-06T09:05:00.414Z,11.2
2022-09-06T09:10:00.320Z,16.2
2022-09-06T09:15:00.181Z,15.1
2022-09-06T09:20:00.354Z,13.3
2022-09-06T09:25:00.207Z,15.5
2022-09-06T09:35:00.415Z,9.0
2022-09-06T09:40:00.629Z,11.5
2022-09-06T09:45:00.219Z,14.4
2022-09-06T09:50:00.364Z,17.3
2022-09-06T09:55:00.199Z,16.6
2022-09-06T10:00:00.723Z,11.2
2022-09-06T10:05:00.240Z,13.3
2022-09-06T10:10:00.354Z,15.8
2022-09-06T10:15:07.470Z,15.5
2022-09-06T10:20:00.342Z,19.1
2022-09-06T10:25:00.305Z,21.2
2022-09-06T10:30:00.347Z,18.4
2022-09-06T10:35:00.210Z,14.4
2022-09-06T10:40:00.624Z,19.8
2022-09-06T10:45:00.204Z,12.2
2022-09-06T10:50:00.468Z,11.9
2022-09-06T10:55:00.167Z,9.4
2022-09-06T11:00:00.416Z,19.1
2022-09-06T11:10:00.296Z,10.1
2022-09-06T11:15:00.194Z,13.0
2022-09-06T11:20:00.400Z,16.9
2022-09-06T11:25:00.199Z,16.6
2022-09-06T11:30:00.353Z,10.4
2022-09-06T11:35:00.185Z,15.8
2022-09-06T11:45:00.325Z,8.3
2022-09-06T11:50:00.299Z,15.5
2022-09-06T11:55:00.183Z,16.9
2022-09-06T12:00:00.359Z,19.1
2022-09-06T12:05:01.106Z,19.4
2022-09-06T12:10:00.384Z,8.3
2022-09-06T12:15:00.212Z,16.9
2022-09-06T12:20:00.370Z,14.4
2022-09-06T12:25:00.187Z,9.4
2022-09-06T12:30:00.464Z,13.3
2022-09-06T12:40:00.620Z,15.8
2022-09-06T12:45:00.416Z,15.8
2022-09-06T12:50:00.332Z,7.9
2022-09-06T12:55:00.199Z,15.1
2022-09-06T13:00:00.336Z,15.5
2022-09-06T13:05:00.205Z,15.5
2022-09-06T13:10:00.325Z,16.6
2022-09-06T13:15:00.347Z,8.3
2022-09-06T13:20:00.315Z,7.6
2022-09-06T13:25:00.189Z,18.4
2022-09-06T13:30:00.342Z,16.9
2022-09-06T13:35:00.210Z,20.2
2022-09-06T13:40:00.633Z,7.9
2022-09-06T13:45:02.613Z,15.5
2022-09-06T13:50:00.668Z,12.2
2022-09-06T13:55:00.183Z,16.2
2022-09-06T14:00:00.651Z,7.2
2022-09-06T14:05:00.187Z,3.2
2022-09-06T14:10:00.709Z,18.4
2022-09-06T14:15:00.198Z,16.2
2022-09-06T14:20:00.759Z,11.5
2022-09-06T14:25:00.196Z,7.6
2022-09-06T14:30:00.532Z,15.1
2022-09-06T14:35:00.291Z,20.9
2022-09-06T14:40:00.953Z,8.3
2022-09-06T14:45:00.220Z,11.9
2022-09-06T14:50:02.620Z,15.8
2022-09-06T14:55:00.205Z,15.5
2022-09-06T15:00:00.343Z,14.4
2022-09-06T15:05:00.310Z,16.2
2022-09-06T15:10:00.334Z,20.9
2022-09-06T15:15:00.194Z,15.1
2022-09-06T15:20:00.690Z,16.6
2022-09-06T15:25:00.304Z,11.9
2022-09-06T15:30:00.318Z,16.6
2022-09-06T15:35:05.008Z,5.8
2022-09-06T15:40:00.644Z,16.2
2022-09-06T15:45:00.288Z,12.6
2022-09-06T15:50:00.364Z,16.9
2022-09-06T15:55:00.168Z,16.2
2022-09-06T16:00:00.343Z,8.6
2022-09-06T16:05:00.296Z,5.0
2022-09-06T16:10:00.319Z,6.8
2022-09-06T16:15:00.191Z,9.4
2022-09-06T16:20:00.344Z,13.3
2022-09-06T16:25:00.193Z,3.2
2022-09-06T16:30:00.341Z,5.8
2022-09-06T16:35:00.188Z,5.0
2022-09-06T16:40:00.612Z,11.9
2022-09-06T16:45:00.318Z,10.4
2022-09-06T16:50:00.337Z,6.5
2022-09-06T16:55:00.214Z,4.0
2022-09-06T17:00:00.474Z,15.1
2022-09-06T17:05:00.214Z,5.4
2022-09-06T17:10:00.324Z,10.8
2022-09-06T17:15:00.333Z,10.1
2022-09-06T17:20:00.387Z,9.7
2022-09-06T17:25:00.179Z,10.1
2022-09-06T17:30:00.309Z,7.2
2022-09-06T17:35:00.332Z,4.7
2022-09-06T17:40:00.638Z,8.6
2022-09-06T17:45:00.206Z,4.7
2022-09-06T17:50:00.356Z,5.8
2022-09-06T17:55:00.175Z,6.5
2022-09-06T18:00:00.350Z,4.0
2022-09-06T18:05:00.441Z,5.0
2022-09-06T18:10:00.313Z,10.1
2022-09-06T18:15:00.196Z,7.9
2022-09-06T18:20:00.425Z,8.6
2022-09-06T18:25:00.161Z,5.0
2022-09-06T18:30:00.411Z,6.5
2022-09-06T18:35:00.160Z,7.2
2022-09-06T18:40:00.642Z,3.2
2022-09-06T18:45:00.216Z,4.7
2022-09-06T18:50:00.447Z,9.7
2022-09-06T18:55:00.178Z,6.1
2022-09-06T19:00:00.569Z,4.3
2022-09-06T19:05:00.183Z,7.6
2022-09-06T19:10:00.563Z,4.3
2022-09-06T19:15:00.193Z,3.6
2022-09-06T19:20:00.518Z,4.0
2022-09-06T19:25:00.166Z,3.6
2022-09-06T19:30:00.566Z,3.2
2022-09-06T19:35:00.212Z,2.5
2022-09-06T19:40:00.682Z,3.6
2022-09-06T19:45:00.194Z,5.4
2022-09-06T19:50:00.464Z,3.2
2022-09-06T19:55:00.226Z,6.5
2022-09-06T20:00:00.411Z,4.0
2022-09-06T20:05:02.422Z,4.0
2022-09-06T20:10:00.297Z,2.5
2022-09-06T20:15:00.224Z,1.4
2022-09-06T20:20:00.425Z,4.3
2022-09-06T20:25:00.258Z,3.2
2022-09-06T20:30:00.422Z,3.2
2022-09-06T20:35:00.266Z,3.6
2022-09-06T20:40:00.597Z,4.0
2022-09-06T20:45:00.226Z,0.0
2022-09-06T20:50:00.390Z,6.5
2022-09-06T20:55:00.165Z,2.5
2022-09-06T21:00:00.383Z,4.0
2022-09-06T21:05:00.180Z,4.0
2022-09-06T21:10:00.330Z,8.6
2022-09-06T21:15:00.178Z,7.9
2022-09-06T21:20:00.393Z,4.0
2022-09-06T21:25:00.179Z,4.7
2022-09-06T21:30:00.431Z,6.1
2022-09-06T21:35:00.169Z,4.0
2022-09-06T21:40:02.572Z,6.8
2022-09-06T21:45:00.197Z,7.2
2022-09-06T21:50:00.376Z,3.2
2022-09-06T21:55:00.175Z,6.1
2022-09-06T22:00:00.443Z,5.8
2022-09-06T22:05:00.165Z,9.0
2022-09-06T22:10:00.384Z,4.3
2022-09-06T22:15:00.189Z,6.5
2022-09-06T22:20:00.415Z,5.0
2022-09-06T22:25:00.444Z,4.0
2022-09-06T22:30:00.459Z,5.0
2022-09-06T22:35:00.188Z,7.2
2022-09-06T22:40:00.703Z,5.8
2022-09-06T22:45:00.541Z,9.0
2022-09-06T22:50:00.401Z,4.0
2022-09-06T22:55:00.195Z,5.8
2022-09-06T23:00:00.437Z,4.3
2022-09-06T23:05:00.486Z,5.4
2022-09-06T23:10:00.408Z,1.8
2022-09-06T23:15:00.167Z,5.4
2022-09-06T23:20:00.371Z,4.3
2022-09-06T23:25:00.179Z,3.6
2022-09-06T23:30:00.376Z,2.5
2022-09-06T23:35:00.164Z,3.6
2022-09-06T23:40:00.657Z,4.0
2022-09-06T23:45:00.246Z,0.0
2022-09-06T23:50:00.429Z,0.0
2022-09-06T23:55:00.235Z,0.0
